createdAt,value
2018-09-08T00:01:58.944Z,101842.60
2018-09-08T00:04:26.628Z,101839.05
2018-09-08T00:06:59.888Z,101842.53
2018-09-08T00:09:27.587Z,101838.62
2018-09-08T00:11:55.302Z,101833.67
2018-09-08T00:14:22.991Z,101833.64
2018-09-08T00:16:56.251Z,101831.92
2018-09-08T00:19:29.749Z,101834.55
2018-09-08T00:22:03.007Z,101835.41
2018-09-08T00:24:36.213Z,101827.80
2018-09-08T00:27:03.354Z,101825.61
2018-09-08T00:29:50.148Z,101830.81
2018-09-08T00:32:18.978Z,101825.50
2018-09-08T00:34:46.655Z,101826.34
2018-09-08T00:37:14.388Z,101830.26
2018-09-08T00:39:43.132Z,101824.46
2018-09-08T00:42:11.368Z,101824.39
2018-09-08T00:44:39.067Z,101830.13
2018-09-08T00:47:06.759Z,101830.92
2018-09-08T00:49:34.466Z,101834.42
2018-09-08T00:52:02.188Z,101833.93
2018-09-08T00:54:29.893Z,101832.57
2018-09-08T00:56:57.644Z,101829.01
2018-09-08T00:59:25.312Z,101830.33
2018-09-08T01:01:53.064Z,101830.27
2018-09-08T01:04:20.744Z,101835.92
2018-09-08T01:06:48.431Z,101830.23
2018-09-08T01:09:16.121Z,101820.88
2018-09-08T01:11:43.795Z,101823.03
2018-09-08T01:14:11.577Z,101816.85
2018-09-08T01:16:39.252Z,101821.64
2018-09-08T01:19:07.099Z,101819.05
2018-09-08T01:21:35.088Z,101814.13
2018-09-08T01:24:02.761Z,101812.34
2018-09-08T01:26:30.501Z,101768.13
2018-09-08T01:28:58.178Z,101825.12
2018-09-08T01:31:25.910Z,101817.20
2018-09-08T01:33:53.661Z,101830.44
2018-09-08T01:36:21.364Z,101822.86
2018-09-08T01:38:49.139Z,101822.38
2018-09-08T01:41:16.935Z,101819.27
2018-09-08T01:43:44.608Z,101821.43
2018-09-08T01:46:12.305Z,101821.81
2018-09-08T01:48:40.039Z,101822.16
2018-09-08T01:51:07.799Z,101823.91
2018-09-08T01:53:35.508Z,101821.25
2018-09-08T01:56:03.239Z,101822.97
2018-09-08T01:58:31.083Z,101827.81
2018-09-08T02:00:58.801Z,101820.27
2018-09-08T02:03:26.516Z,101826.45
2018-09-08T02:05:54.267Z,101821.08
2018-09-08T02:08:21.975Z,101828.55
2018-09-08T02:10:49.846Z,101823.27
2018-09-08T02:13:17.719Z,101820.58
2018-09-08T02:15:45.431Z,101822.75
2018-09-08T02:18:13.131Z,101828.94
2018-09-08T02:20:40.896Z,101829.77
2018-09-08T02:23:08.575Z,101824.91
2018-09-08T02:25:36.292Z,101827.05
2018-09-08T02:28:04.070Z,101829.59
2018-09-08T02:30:31.841Z,101824.24
2018-09-08T02:32:59.556Z,101827.31
2018-09-08T02:35:27.282Z,101819.73
2018-09-08T02:37:54.978Z,101827.66
2018-09-08T02:40:22.668Z,101825.36
2018-09-08T02:42:50.442Z,101825.70
2018-09-08T02:45:18.207Z,101822.48
2018-09-08T02:47:45.923Z,101820.66
2018-09-08T02:50:37.633Z,101814.78
2018-09-08T02:53:04.835Z,101822.22
2018-09-08T02:55:31.876Z,101822.98
2018-09-08T02:57:58.765Z,101816.34
2018-09-08T03:00:25.879Z,101816.23
2018-09-08T03:02:52.769Z,101817.52
2018-09-08T03:05:19.289Z,101812.55
2018-09-08T03:07:45.835Z,101808.03
2018-09-08T03:10:12.612Z,101811.45
2018-09-08T03:12:39.095Z,101814.06
2018-09-08T03:15:05.556Z,101813.08
2018-09-08T03:17:32.031Z,101806.44
2018-09-08T03:19:58.501Z,101804.20
2018-09-08T03:22:25.032Z,101806.78
2018-09-08T03:24:51.495Z,101805.86
2018-09-08T03:27:18.261Z,101794.25
2018-09-08T03:29:44.753Z,101795.45
2018-09-08T03:32:11.344Z,101794.55
2018-09-08T03:34:37.821Z,101796.22
2018-09-08T03:37:04.289Z,101795.69
2018-09-08T03:39:30.779Z,101797.80
2018-09-08T03:41:57.243Z,101798.17
2018-09-08T03:44:23.775Z,101799.43
2018-09-08T03:46:50.288Z,101802.50
2018-09-08T03:49:16.743Z,101800.59
2018-09-08T03:51:43.220Z,101802.31
2018-09-08T03:54:09.785Z,101814.19
2018-09-08T03:56:36.239Z,101822.09
2018-09-08T03:59:02.909Z,101822.51
2018-09-08T04:01:29.347Z,101817.11
2018-09-08T04:03:57.141Z,101818.81
2018-09-08T04:06:24.865Z,101819.20
2018-09-08T04:08:52.625Z,101816.08
2018-09-08T04:11:20.372Z,101812.43
2018-09-08T04:13:48.115Z,101810.60
2018-09-08T04:16:15.820Z,101810.98
2018-09-08T04:18:43.547Z,101819.38
2018-09-08T04:21:11.484Z,101815.39
2018-09-08T04:23:39.189Z,101821.12
2018-09-08T04:26:07.208Z,101814.89
2018-09-08T04:28:34.903Z,101820.20
2018-09-08T04:31:03.580Z,101820.59
2018-09-08T04:33:31.371Z,101817.47
2018-09-08T04:35:59.134Z,101814.34
2018-09-08T04:38:26.847Z,101821.80
2018-09-08T04:40:54.650Z,101828.86
2018-09-08T04:43:22.323Z,101827.95
2018-09-08T04:45:50.041Z,101831.41
2018-09-08T04:48:17.908Z,101833.06
2018-09-08T04:50:45.668Z,101828.12
2018-09-08T04:53:13.379Z,101820.14
2018-09-08T04:55:41.104Z,101816.07
2018-09-08T04:58:08.820Z,101821.73
2018-09-08T05:00:36.519Z,101817.28
2018-09-08T05:03:04.353Z,101820.81
2018-09-08T05:05:32.096Z,101821.61
2018-09-08T05:07:59.845Z,101831.33
2018-09-08T05:10:27.555Z,101825.43
2018-09-08T05:12:55.292Z,101822.98
2018-09-08T05:15:23.020Z,101818.87
2018-09-08T05:17:50.728Z,101824.02
2018-09-08T05:20:18.426Z,101822.16
2018-09-08T05:22:46.192Z,101821.65
2018-09-08T05:25:13.882Z,101827.13
2018-09-08T05:27:41.633Z,101827.47
2018-09-08T05:30:09.384Z,101830.80
2018-09-08T05:32:37.241Z,101827.22
2018-09-08T05:35:05.033Z,101828.42
2018-09-08T05:37:32.769Z,101830.66
2018-09-08T05:40:00.528Z,101830.94
2018-09-08T05:42:28.207Z,101831.53
2018-09-08T05:44:55.904Z,101829.53
2018-09-08T05:47:23.627Z,101828.61
2018-09-08T05:49:51.351Z,101818.36
2018-09-08T05:52:19.068Z,101823.10
2018-09-08T05:54:46.810Z,101824.22
2018-09-08T05:57:14.595Z,101826.51
2018-09-08T05:59:42.299Z,101827.86
2018-09-08T06:02:10.000Z,101827.59
2018-09-08T06:04:37.780Z,101831.45
2018-09-08T06:07:06.095Z,101828.66
2018-09-08T06:09:34.660Z,101834.04
2018-09-08T06:12:02.409Z,101838.18
2018-09-08T06:14:31.289Z,101833.45
2018-09-08T06:16:59.280Z,101834.05
2018-09-08T06:19:27.092Z,101831.66
2018-09-08T06:21:54.791Z,101833.17
2018-09-08T06:24:22.577Z,101829.36
2018-09-08T06:26:50.296Z,101832.11
2018-09-08T06:29:18.297Z,101831.52
2018-09-08T06:31:46.495Z,101835.70
2018-09-08T06:34:14.495Z,101826.49
2018-09-08T06:36:42.437Z,101835.49
2018-09-08T06:39:12.091Z,101833.52
2018-09-08T06:41:39.827Z,101831.99
2018-09-08T06:44:07.623Z,101830.45
2018-09-08T06:46:35.556Z,101835.92
2018-09-08T06:49:03.951Z,101831.51
2018-09-08T06:51:32.016Z,101837.63
2018-09-08T06:53:59.749Z,101832.52
2018-09-08T06:56:27.499Z,101833.13
2018-09-08T06:58:55.272Z,101836.36
2018-09-08T07:01:23.051Z,101837.76
2018-09-08T07:03:50.757Z,101832.00
2018-09-08T07:06:18.521Z,101833.67
2018-09-08T07:08:46.269Z,101830.16
2018-09-08T07:11:14.009Z,101831.88
2018-09-08T07:13:41.716Z,101833.13
2018-09-08T07:16:09.500Z,101822.00
2018-09-08T07:18:37.245Z,101814.08
2018-09-08T07:21:05.197Z,101812.64
2018-09-08T07:23:33.225Z,101815.66
2018-09-08T07:26:01.340Z,101808.33
2018-09-08T07:28:29.151Z,101817.60
2018-09-08T07:30:56.900Z,101807.63
2018-09-08T07:33:25.612Z,101809.16
2018-09-08T07:35:53.386Z,101811.05
2018-09-08T07:38:21.122Z,101809.91
2018-09-08T07:40:48.840Z,101806.83
2018-09-08T07:43:16.592Z,101810.76
2018-09-08T07:45:44.311Z,101809.47
2018-09-08T07:48:12.052Z,101810.00
2018-09-08T07:50:39.751Z,101800.05
2018-09-08T07:53:07.556Z,101802.70
2018-09-08T07:55:35.319Z,101805.73
2018-09-08T07:58:03.073Z,101809.03
2018-09-08T08:00:30.821Z,101804.42
2018-09-08T08:02:58.536Z,101805.46
2018-09-08T08:05:26.252Z,101796.95
2018-09-08T08:07:54.004Z,101804.06
2018-09-08T08:10:21.712Z,101800.55
2018-09-08T08:12:49.599Z,101795.30
2018-09-08T08:15:17.339Z,101794.50
2018-09-08T08:17:45.094Z,101804.13
2018-09-08T08:20:12.843Z,101801.38
2018-09-08T08:22:40.648Z,101806.72
2018-09-08T08:25:08.416Z,101806.82
2018-09-08T08:27:36.171Z,101807.89
2018-09-08T08:30:04.217Z,101800.94
2018-09-08T08:32:31.952Z,101798.30
2018-09-08T08:34:59.688Z,101801.59
2018-09-08T08:37:27.473Z,101807.50
2018-09-08T08:39:55.207Z,101807.59
2018-09-08T08:42:22.958Z,101802.33
2018-09-08T08:44:50.708Z,101802.23
2018-09-08T08:47:18.509Z,101807.54
2018-09-08T08:49:56.603Z,101812.61
2018-09-08T08:52:35.556Z,101807.28
2018-09-08T08:55:02.132Z,101806.78
2018-09-08T08:57:29.857Z,101810.00
2018-09-08T08:59:57.640Z,101810.33
2018-09-08T09:02:25.423Z,101805.96
2018-09-08T09:04:53.173Z,101807.01
2018-09-08T09:07:20.901Z,101821.83
2018-09-08T09:09:48.652Z,101813.56
2018-09-08T09:12:16.367Z,101801.06
2018-09-08T09:14:44.136Z,101811.69
2018-09-08T09:17:11.868Z,101802.55
2018-09-08T09:19:50.824Z,101799.30
2018-09-08T09:22:29.799Z,101802.08
2018-09-08T09:25:05.983Z,101807.63
2018-09-08T09:27:36.104Z,101803.72
2018-09-08T09:30:04.382Z,101804.86
2018-09-08T09:32:32.146Z,101802.77
2018-09-08T09:34:59.868Z,101806.90
2018-09-08T09:37:27.651Z,101794.38
2018-09-08T09:39:56.301Z,101801.77
2018-09-08T09:42:23.994Z,101792.66
2018-09-08T09:44:51.700Z,101792.63
2018-09-08T09:47:19.569Z,101793.19
2018-09-08T09:49:47.288Z,101806.74
2018-09-08T09:52:15.035Z,101789.50
2018-09-08T09:54:42.912Z,101786.05
2018-09-08T09:57:10.665Z,101777.66
2018-09-08T09:59:38.484Z,101790.26
2018-09-08T10:02:11.733Z,101787.48
2018-09-08T10:04:39.491Z,101781.60
2018-09-08T10:07:10.441Z,101780.35
2018-09-08T10:09:39.473Z,101784.87
2018-09-08T10:12:07.259Z,101791.41
2018-09-08T10:14:35.000Z,101794.38
2018-09-08T10:17:02.792Z,101784.80
2018-09-08T10:19:30.541Z,101780.57
2018-09-08T10:21:58.326Z,101787.02
2018-09-08T10:24:26.127Z,101785.79
2018-09-08T10:26:53.853Z,101778.42
2018-09-08T10:29:21.632Z,101769.50
2018-09-08T10:31:49.940Z,101775.89
2018-09-08T10:34:17.197Z,101776.16
2018-09-08T10:36:44.930Z,101773.30
2018-09-08T10:39:12.652Z,101775.51
2018-09-08T10:41:40.400Z,101776.92
2018-09-08T10:44:08.334Z,101776.21
2018-09-08T10:46:36.092Z,101781.84
2018-09-08T10:49:03.844Z,101780.09
2018-09-08T10:52:38.014Z,101774.86
2018-09-08T10:55:05.854Z,101773.89
2018-09-08T10:57:33.603Z,101773.91
2018-09-08T11:00:02.156Z,101784.23
2018-09-08T11:02:30.601Z,101772.75
2018-09-08T11:04:58.129Z,101777.89
2018-09-08T11:07:25.912Z,101770.31
2018-09-08T11:09:53.712Z,101775.19
2018-09-08T11:12:21.482Z,101777.06
2018-09-08T11:14:49.241Z,101769.41
2018-09-08T11:17:17.017Z,101773.44
2018-09-08T11:19:44.731Z,101784.30
2018-09-08T11:22:12.661Z,101781.35
2018-09-08T11:24:40.388Z,101775.75
2018-09-08T11:27:08.224Z,101779.03
2018-09-08T11:29:36.080Z,101775.95
2018-09-08T11:32:03.842Z,101775.09
2018-09-08T11:34:31.701Z,101773.22
2018-09-08T11:36:59.463Z,101779.28
2018-09-08T11:39:27.251Z,101784.46
2018-09-08T11:41:55.014Z,101783.98
2018-09-08T11:44:22.720Z,101782.50
2018-09-08T11:46:50.538Z,101793.30
2018-09-08T11:49:18.259Z,101782.17
2018-09-08T11:51:46.004Z,101784.72
2018-09-08T11:54:13.808Z,101779.23
2018-09-08T11:56:41.524Z,101775.91
2018-09-08T11:59:09.271Z,101778.47
2018-09-08T12:01:37.062Z,101772.25
2018-09-08T12:04:04.826Z,101780.77
2018-09-08T12:06:32.609Z,101781.98
2018-09-08T12:09:00.366Z,101772.52
2018-09-08T12:11:28.079Z,101782.48
2018-09-08T12:13:55.854Z,101774.31
2018-09-08T12:16:23.592Z,101773.53
2018-09-08T12:18:51.356Z,101775.83
2018-09-08T12:21:19.076Z,101771.44
2018-09-08T12:23:46.840Z,101778.14
2018-09-08T12:26:14.602Z,101778.12
2018-09-08T12:28:42.368Z,101772.08
2018-09-08T12:31:10.089Z,101769.15
2018-09-08T12:33:37.857Z,101764.60
2018-09-08T12:36:05.948Z,101778.64
2018-09-08T12:38:33.757Z,101769.84
2018-09-08T12:41:01.564Z,101772.87
2018-09-08T12:43:29.259Z,101773.64
2018-09-08T12:45:57.091Z,101767.66
2018-09-08T12:48:24.749Z,101769.38
2018-09-08T12:50:52.468Z,101782.53
2018-09-08T12:53:20.292Z,101774.25
2018-09-08T12:55:48.004Z,101774.53
2018-09-08T12:58:15.724Z,101774.23
2018-09-08T13:00:43.456Z,101770.52
2018-09-08T13:03:11.329Z,101774.72
2018-09-08T13:05:39.088Z,101780.80
2018-09-08T13:08:06.859Z,101777.38
2018-09-08T13:10:34.801Z,101776.81
2018-09-08T13:13:02.563Z,101781.23
2018-09-08T13:15:30.333Z,101781.23
2018-09-08T13:17:58.060Z,101783.95
2018-09-08T13:20:25.793Z,101788.14
2018-09-08T13:22:53.537Z,101781.21
2018-09-08T13:25:21.244Z,101787.16
2018-09-08T13:27:48.984Z,101789.37
2018-09-08T13:30:16.663Z,101781.33
2018-09-08T13:32:44.400Z,101785.38
2018-09-08T13:35:12.231Z,101789.47
2018-09-08T13:37:39.953Z,101781.81
2018-09-08T13:40:07.718Z,101787.31
2018-09-08T13:42:35.548Z,101788.22
2018-09-08T13:45:03.328Z,101777.88
2018-09-08T13:47:31.085Z,101778.91
2018-09-08T13:49:58.795Z,101779.30
2018-09-08T13:52:26.550Z,101776.89
2018-09-08T13:54:54.322Z,101775.19
2018-09-08T13:57:22.073Z,101783.52
2018-09-08T13:59:49.752Z,101775.38
2018-09-08T14:02:17.624Z,101775.19
2018-09-08T14:04:45.356Z,101778.43
2018-09-08T14:07:13.061Z,101782.93
2018-09-08T14:09:41.087Z,101779.37
2018-09-08T14:12:08.795Z,101781.39
2018-09-08T14:14:36.547Z,101784.86
2018-09-08T14:17:04.553Z,101773.81
2018-09-08T14:19:32.261Z,101770.57
2018-09-08T14:22:00.055Z,101775.66
2018-09-08T14:24:27.909Z,101765.00
2018-09-08T14:26:55.773Z,101769.78
2018-09-08T14:29:23.540Z,101772.98
2018-09-08T14:31:51.320Z,101770.02
2018-09-08T14:34:19.048Z,101779.97
2018-09-08T14:36:46.886Z,101774.59
2018-09-08T14:39:14.692Z,101771.63
2018-09-08T14:41:42.604Z,101766.69
2018-09-08T14:44:10.338Z,101770.34
2018-09-08T14:46:38.028Z,101771.29
2018-09-08T14:49:05.906Z,101764.38
2018-09-08T14:51:33.896Z,101769.38
2018-09-08T14:54:01.660Z,101771.86
2018-09-08T14:56:29.361Z,101768.22
2018-09-08T14:58:57.157Z,101782.58
2018-09-08T15:01:24.847Z,101786.20
2018-09-08T15:03:52.608Z,101778.34
2018-09-08T15:06:20.366Z,101770.48
2018-09-08T15:08:48.089Z,101771.94
2018-09-08T15:11:15.846Z,101773.75
2018-09-08T15:13:43.588Z,101781.59
2018-09-08T15:16:11.327Z,101778.15
2018-09-08T15:18:39.081Z,101773.44
2018-09-08T15:21:07.035Z,101784.72
2018-09-08T15:23:34.785Z,101785.38
2018-09-08T15:26:02.576Z,101786.83
2018-09-08T15:28:30.371Z,101786.22
2018-09-08T15:30:58.124Z,101788.22
2018-09-08T15:33:25.884Z,101793.21
2018-09-08T15:35:53.590Z,101789.37
2018-09-08T15:38:21.344Z,101782.20
2018-09-08T15:40:49.088Z,101786.30
2018-09-08T15:43:16.802Z,101787.56
2018-09-08T15:45:44.573Z,101784.77
2018-09-08T15:48:12.309Z,101790.72
2018-09-08T15:50:40.074Z,101789.16
2018-09-08T15:53:07.813Z,101787.53
2018-09-08T15:55:35.549Z,101784.38
2018-09-08T15:58:03.292Z,101789.89
2018-09-08T16:00:31.268Z,101789.89
2018-09-08T16:02:59.065Z,101791.95
2018-09-08T16:05:26.862Z,101792.39
2018-09-08T16:07:54.630Z,101787.83
2018-09-08T16:10:22.365Z,101790.86
2018-09-08T16:12:50.108Z,101787.20
2018-09-08T16:15:17.959Z,101794.65
2018-09-08T16:17:45.736Z,101784.72
2018-09-08T16:20:13.456Z,101782.86
2018-09-08T16:22:41.256Z,101780.00
2018-09-08T16:25:08.973Z,101786.06
2018-09-08T16:27:36.767Z,101778.38
2018-09-08T16:30:04.554Z,101776.59
2018-09-08T16:32:32.275Z,101773.89
2018-09-08T16:34:59.997Z,101777.20
2018-09-08T16:37:27.716Z,101781.76
2018-09-08T16:39:55.424Z,101773.20
2018-09-08T16:42:23.120Z,101777.39
2018-09-08T16:44:50.872Z,101778.12
2018-09-08T16:47:18.576Z,101783.14
2018-09-08T16:49:46.325Z,101771.67
2018-09-08T16:52:14.142Z,101779.73
2018-09-08T16:54:41.793Z,101783.75
2018-09-08T16:57:09.531Z,101779.27
2018-09-08T16:59:37.215Z,101776.72
2018-09-08T17:02:04.948Z,101787.98
2018-09-08T17:04:32.665Z,101790.96
2018-09-08T17:07:00.465Z,101790.19
2018-09-08T17:09:28.155Z,101789.88
2018-09-08T17:11:55.898Z,101787.77
2018-09-08T17:14:23.652Z,101792.00
2018-09-08T17:16:51.368Z,101792.56
2018-09-08T17:19:19.068Z,101794.38
2018-09-08T17:21:46.812Z,101794.84
2018-09-08T17:24:14.555Z,101792.50
2018-09-08T17:26:42.322Z,101794.52
2018-09-08T17:29:10.033Z,101790.58
2018-09-08T17:31:37.739Z,101797.58
2018-09-08T17:34:05.535Z,101794.28
2018-09-08T17:36:33.240Z,101795.84
2018-09-08T17:39:00.972Z,101799.59
2018-09-08T17:41:28.746Z,101798.09
2018-09-08T17:43:56.504Z,101806.27
2018-09-08T17:46:24.337Z,101803.19
2018-09-08T17:48:52.160Z,101808.12
2018-09-08T17:51:19.910Z,101802.27
2018-09-08T17:53:47.676Z,101804.89
2018-09-08T17:56:15.406Z,101806.84
2018-09-08T17:58:43.178Z,101809.66
2018-09-08T18:01:11.760Z,101815.20
2018-09-08T18:03:39.484Z,101814.31
2018-09-08T18:06:07.269Z,101814.45
2018-09-08T18:08:35.066Z,101810.19
2018-09-08T18:11:02.776Z,101815.62
2018-09-08T18:13:30.500Z,101810.48
2018-09-08T18:15:58.236Z,101807.70
2018-09-08T18:18:26.011Z,101806.73
2018-09-08T18:20:53.696Z,101808.73
2018-09-08T18:23:21.456Z,101803.39
2018-09-08T18:25:49.232Z,101803.08
2018-09-08T18:28:16.939Z,101810.27
2018-09-08T18:30:44.815Z,101805.07
2018-09-08T18:33:12.532Z,101809.81
2018-09-08T18:35:40.251Z,101811.29
2018-09-08T18:38:08.056Z,101806.19
2018-09-08T18:40:35.743Z,101813.36
2018-09-08T18:43:03.485Z,101809.59
2018-09-08T18:45:31.201Z,101813.64
2018-09-08T18:47:59.236Z,101816.13
2018-09-08T18:50:27.020Z,101810.79
2018-09-08T18:52:54.755Z,101821.92
2018-09-08T18:55:22.471Z,101818.98
2018-09-08T18:57:50.667Z,101817.92
2018-09-08T19:00:18.396Z,101820.31
2018-09-08T19:02:46.111Z,101823.57
2018-09-08T19:05:13.815Z,101823.87
2018-09-08T19:07:41.511Z,101823.17
2018-09-08T19:10:09.272Z,101826.64
2018-09-08T19:12:36.992Z,101827.14
2018-09-08T19:15:10.288Z,101821.95
2018-09-08T19:17:38.018Z,101827.99
2018-09-08T19:20:11.444Z,101825.30
2018-09-08T19:22:39.220Z,101826.93
2018-09-08T19:25:06.941Z,101821.44
2018-09-08T19:27:34.657Z,101821.61
2018-09-08T19:30:03.157Z,101828.72
2018-09-08T19:32:30.934Z,101829.13
2018-09-08T19:35:04.111Z,101830.34
2018-09-08T19:37:34.833Z,101824.80
2018-09-08T19:40:02.621Z,101829.16
2018-09-08T19:42:30.988Z,101830.43
2018-09-08T19:44:58.808Z,101829.55
2018-09-08T19:47:32.041Z,101823.44
2018-09-08T19:49:59.789Z,101825.03
2018-09-08T19:52:33.248Z,101819.72
2018-09-08T19:55:01.152Z,101823.07
2018-09-08T19:57:34.496Z,101826.80
2018-09-08T20:00:02.276Z,101821.63
2018-09-08T20:02:30.025Z,101825.86
2018-09-08T20:04:57.749Z,101828.86
2018-09-08T20:07:25.526Z,101829.02
2018-09-08T20:09:53.244Z,101826.55
2018-09-08T20:12:20.967Z,101830.23
2018-09-08T20:14:48.674Z,101820.34
2018-09-08T20:17:16.370Z,101827.83
2018-09-08T20:19:44.158Z,101833.33
2018-09-08T20:22:11.816Z,101827.59
2018-09-08T20:24:39.575Z,101832.57
2018-09-08T20:27:07.334Z,101828.40
2018-09-08T20:29:35.064Z,101833.20
2018-09-08T20:32:02.797Z,101842.28
2018-09-08T20:34:30.671Z,101838.14
2018-09-08T20:36:58.460Z,101837.00
2018-09-08T20:39:26.171Z,101847.09
2018-09-08T20:41:53.864Z,101841.05
2018-09-08T20:44:21.732Z,101845.83
2018-09-08T20:46:49.403Z,101841.82
2018-09-08T20:49:17.119Z,101844.66
2018-09-08T20:51:44.876Z,101838.61
2018-09-08T20:54:12.588Z,101845.84
2018-09-08T20:56:40.281Z,101840.78
2018-09-08T20:59:08.106Z,101849.83
2018-09-08T21:01:35.817Z,101850.84
2018-09-08T21:04:03.631Z,101852.48
2018-09-08T21:06:31.332Z,101846.15
2018-09-08T21:08:59.067Z,101846.28
2018-09-08T21:11:26.924Z,101845.92
2018-09-08T21:13:54.652Z,101846.52
2018-09-08T21:16:22.352Z,101846.27
2018-09-08T21:18:50.090Z,101844.23
2018-09-08T21:21:17.778Z,101846.14
2018-09-08T21:23:45.457Z,101840.50
2018-09-08T21:26:13.189Z,101851.41
2018-09-08T21:28:40.907Z,101854.19
2018-09-08T21:31:08.627Z,101851.24
2018-09-08T21:33:36.319Z,101849.07
2018-09-08T21:36:04.067Z,101843.44
2018-09-08T21:38:31.769Z,101850.55
2018-09-08T21:40:59.487Z,101857.54
2018-09-08T21:43:27.279Z,101854.44
2018-09-08T21:45:54.983Z,101854.08
2018-09-08T21:48:22.696Z,101851.78
2018-09-08T21:50:50.440Z,101847.80
2018-09-08T21:53:18.123Z,101855.41
2018-09-08T21:55:45.831Z,101857.09
2018-09-08T21:58:13.569Z,101843.83
2018-09-08T22:00:45.856Z,101852.14
2018-09-08T22:03:13.584Z,101845.12
2018-09-08T22:05:41.272Z,101848.07
2018-09-08T22:08:08.976Z,101845.42
2018-09-08T22:10:36.679Z,101847.69
2018-09-08T22:13:04.373Z,101849.08
2018-09-08T22:15:32.058Z,101844.23
2018-09-08T22:17:59.794Z,101839.83
2018-09-08T22:20:27.720Z,101837.08
2018-09-08T22:22:55.414Z,101835.73
2018-09-08T22:25:23.150Z,101839.73
2018-09-08T22:27:50.888Z,101843.30
2018-09-08T22:30:18.618Z,101840.64
2018-09-08T22:32:46.338Z,101843.08
2018-09-08T22:35:14.035Z,101847.50
2018-09-08T22:37:41.765Z,101838.36
2018-09-08T22:40:09.448Z,101835.67
2018-09-08T22:42:37.141Z,101837.27
2018-09-08T22:45:05.005Z,101829.95
2018-09-08T22:47:32.691Z,101827.77
2018-09-08T22:50:00.441Z,101831.28
2018-09-08T22:52:28.275Z,101827.05
2018-09-08T22:54:55.993Z,101825.84
2018-09-08T22:57:23.724Z,101826.34
2018-09-08T22:59:51.436Z,101830.89
2018-09-08T23:02:19.180Z,101835.91
2018-09-08T23:04:46.844Z,101832.54
2018-09-08T23:07:14.562Z,101834.16
2018-09-08T23:09:42.716Z,101830.83
2018-09-08T23:12:10.447Z,101829.41
2018-09-08T23:14:38.142Z,101820.55
2018-09-08T23:17:05.977Z,101826.95
2018-09-08T23:19:33.669Z,101818.74
2018-09-08T23:22:01.384Z,101819.11
2018-09-08T23:24:29.113Z,101818.65
2018-09-08T23:26:56.808Z,101822.52
2018-09-08T23:29:24.760Z,101821.05
2018-09-08T23:31:52.460Z,101820.92
2018-09-08T23:34:20.197Z,101827.50
2018-09-08T23:36:47.884Z,101825.58
2018-09-08T23:39:15.615Z,101821.94
2018-09-08T23:41:43.314Z,101826.27
2018-09-08T23:44:11.000Z,101826.13
2018-09-08T23:46:38.668Z,101828.20
2018-09-08T23:49:06.376Z,101832.61
2018-09-08T23:51:34.080Z,101821.85
2018-09-08T23:54:01.848Z,101822.56
2018-09-08T23:56:29.592Z,101818.92
2018-09-08T23:58:57.308Z,101818.45
